^^
Grace C. Lehan Memorial Weather Station Historical Data
Daily Summary for June 10, 2021 Units:  English    Metric   Both
Daily Weekly Monthly Yearly
  High: Low: Average:
Temperature: 74.4 °F 59.8 °F 67.9 °F
Dew Point: 64.6 °F 51 °F 57.3 °F
Humidity: 96% 51.3% 70%
Wind Speed: 8.4mph 0mph 2.3mph
Wind Gust: 22mph - -
Wind- - WNW
Pressure: 30.02 in 29.68 in -
Precipitation: 0.00 in    
 
 
Tabular Data for June 10, 2021
Time Temperature Dew Point Pressure Wind Wind Speed Wind Gust Humidity Rainfall Rate (Hourly) solar
00:04 65.9 °F 64.4 °F 29.70 in Calm     95% 0.00 in 0 W/m2
00:09 65.9 °F 64.5 °F 29.71 in Calm     95.3% 0.00 in 0 W/m2
00:14 65.8 °F 64.6 °F 29.71 in Calm     96% 0.00 in 0 W/m2
00:19 65.8 °F 64.6 °F 29.71 in Calm     96% 0.00 in 0 W/m2
00:24 65.8 °F 64.6 °F 29.71 in Calm     96% 0.00 in 0 W/m2
00:29 65.7 °F 64.6 °F 29.70 in Calm   1 mph 96% 0.00 in 0 W/m2
00:34 65.7 °F 64.5 °F 29.70 in SW 0.1 mph 2 mph 96% 0.00 in 0 W/m2
00:39 65.6 °F 64.3 °F 29.70 in Calm   2 mph 95.7% 0.00 in 0 W/m2
00:44 65.4 °F 63.9 °F 29.70 in Calm   2 mph 95% 0.00 in 0 W/m2
00:49 65.3 °F 63.8 °F 29.70 in Calm   2 mph 95% 0.00 in 0 W/m2
00:54 65.2 °F 63.8 °F 29.71 in Calm   2 mph 95% 0.00 in 0 W/m2
00:59 65.2 °F 63.7 °F 29.71 in Calm   2 mph 95% 0.00 in 0 W/m2
01:04 65.1 °F 63.7 °F 29.71 in Calm   2 mph 95% 0.00 in 0 W/m2
01:09 65.1 °F 63.9 °F 29.70 in Calm     96% 0.00 in 0 W/m2
01:14 65 °F 63.7 °F 29.71 in Calm     95.4% 0.00 in 0 W/m2
01:19 65 °F 63.5 °F 29.70 in Calm     95% 0.00 in 0 W/m2
01:24 64.9 °F 63.4 °F 29.70 in Calm     95% 0.00 in 0 W/m2
01:29 64.8 °F 63.4 °F 29.71 in Calm     95% 0.00 in 0 W/m2
01:34 64.7 °F 63.3 °F 29.70 in Calm     95% 0.00 in 0 W/m2
01:39 64.7 °F 63.2 °F 29.70 in SW 0.1 mph 2 mph 95% 0.00 in 0 W/m2
01:44 64.6 °F 63.1 °F 29.70 in Calm   2 mph 95% 0.00 in 0 W/m2
01:49 64.5 °F 63 °F 29.71 in SW 0.1 mph 2 mph 95% 0.00 in 0 W/m2
01:54 64.5 °F 63 °F 29.71 in Calm   2 mph 95% 0.00 in 0 W/m2
01:59 64.5 °F 63 °F 29.69 in Calm   2 mph 95% 0.00 in 0 W/m2
02:04 64.4 °F 63 °F 29.68 in SW 0.1 mph 3 mph 95% 0.00 in 0 W/m2
02:09 64.4 °F 63 °F 29.71 in SW 0.2 mph 4 mph 95% 0.00 in 0 W/m2
02:14 64.5 °F 63 °F 29.71 in Calm   4 mph 95% 0.00 in 0 W/m2
02:19 64.5 °F 63 °F 29.71 in Calm   4 mph 95% 0.00 in 0 W/m2
02:24 64.5 °F 63.1 °F 29.71 in Calm   4 mph 95% 0.00 in 0 W/m2
02:29 64.5 °F 63.1 °F 29.71 in Calm   4 mph 95% 0.00 in 0 W/m2
02:34 64.5 °F 63 °F 29.71 in Calm   4 mph 95% 0.00 in 0 W/m2
02:39 64.5 °F 63 °F 29.70 in Calm     95% 0.00 in 0 W/m2
02:44 64.5 °F 63 °F 29.70 in Calm     95% 0.00 in 0 W/m2
02:49 64.5 °F 63 °F 29.71 in Calm     95% 0.00 in 0 W/m2
02:54 64.4 °F 63 °F 29.71 in Calm   1 mph 95% 0.00 in 0 W/m2
02:59 64.3 °F 62.9 °F 29.70 in WSW 0.1 mph 3 mph 95% 0.00 in 0 W/m2
03:04 64.3 °F 62.8 °F 29.69 in WSW 0.1 mph 3 mph 95% 0.00 in 0 W/m2
03:09 64.2 °F 62.8 °F 29.69 in West 0.6 mph 5 mph 95% 0.00 in 0 W/m2
03:14 64.1 °F 62.4 °F 29.69 in WNW 0.4 mph 5 mph 94.1% 0.00 in 0 W/m2
03:19 64.1 °F 62.3 °F 29.69 in WNW 0.4 mph 5 mph 94% 0.00 in 0 W/m2
03:24 64.2 °F 62.2 °F 29.69 in WNW 1.1 mph 5 mph 93.3% 0.00 in 0 W/m2
03:29 64.2 °F 62 °F 29.69 in NW 0.3 mph 5 mph 92.7% 0.00 in 0 W/m2
03:34 64.2 °F 61.8 °F 29.69 in NW 0.3 mph 5 mph 92% 0.00 in 0 W/m2
03:39 64.2 °F 61.6 °F 29.70 in WNW 0.8 mph 11 mph 91.5% 0.00 in 0 W/m2
03:44 64.1 °F 61.3 °F 29.70 in WNW 2.2 mph 11 mph 90.8% 0.00 in 0 W/m2
03:49 64 °F 61 °F 29.70 in NW 1.8 mph 11 mph 89.8% 0.00 in 0 W/m2
03:54 64.1 °F 60.8 °F 29.70 in WNW 1.7 mph 11 mph 88.9% 0.00 in 0 W/m2
03:59 64.2 °F 60.5 °F 29.70 in NW 1.5 mph 11 mph 88% 0.00 in 0 W/m2
04:09 64.3 °F 60.4 °F 29.70 in WNW 0.1 mph 2 mph 87.2% 0.00 in 0 W/m2
04:14 64.2 °F 60.3 °F 29.70 in WNW 0.8 mph 6 mph 87% 0.00 in 0 W/m2
04:19 64.2 °F 60.3 °F 29.70 in WNW 0.1 mph 6 mph 87% 0.00 in 0 W/m2
04:20 64.2 °F 60.3 °F 29.70 in NW 2.8 mph 6 mph 87% 0.00 in 0 W/m2
05:00 63.6 °F 59.3 °F 29.70 in WNW 1 mph 13 mph 86% 0.00 in 0 W/m2
05:30 63.2 °F 59.3 °F 29.71 in NW 3 mph 14 mph 87% 0.00 in 0 W/m2
06:00 62.9 °F 59 °F 29.72 in NW 2 mph 14 mph 87% 0.00 in 0 W/m2
06:30 62.8 °F 58.9 °F 29.74 in NW 1 mph 9 mph 87% 0.00 in 0 W/m2
07:00 62.5 °F 58.6 °F 29.76 in Calm   2 mph 87% 0.00 in 6 W/m2
07:30 63.1 °F 58.8 °F 29.78 in NW 1 mph 6 mph 86% 0.00 in 15 W/m2
08:04 64.1 °F 59.2 °F 29.78 in NNW 0.3 mph 2 mph 84% 0.00 in 51 W/m2
08:09 64.3 °F 59.3 °F 29.78 in NNW 0.4 mph 3 mph 84% 0.00 in 58 W/m2
08:14 64.4 °F 59.5 °F 29.78 in WNW 1.8 mph 10 mph 84% 0.00 in 60 W/m2
08:19 64.6 °F 59.3 °F 29.78 in Calm   10 mph 83.1% 0.00 in 63 W/m2
08:24 64.7 °F 59.5 °F 29.78 in WNW 1.7 mph 10 mph 83% 0.00 in 70 W/m2
08:29 64.9 °F 59.5 °F 29.78 in NW 1.4 mph 10 mph 82.7% 0.00 in 141 W/m2
08:34 65.1 °F 59.5 °F 29.78 in NW 2.2 mph 12 mph 81.9% 0.00 in 371 W/m2
08:39 65.4 °F 59.4 °F 29.78 in WNW 0.5 mph 12 mph 81.1% 0.00 in 410 W/m2
08:44 65.9 °F 60.3 °F 29.78 in Calm   12 mph 82% 0.00 in 413 W/m2
08:49 66.5 °F 60.7 °F 29.78 in NW 1.3 mph 12 mph 81.4% 0.00 in 413 W/m2
08:54 67.2 °F 60.6 °F 29.78 in NW 0.9 mph 12 mph 79.4% 0.00 in 441 W/m2
08:59 67.9 °F 60.7 °F 29.79 in NW 1.3 mph 12 mph 77.8% 0.00 in 466 W/m2
09:04 68.7 °F 60.8 °F 29.79 in NW 0.7 mph 12 mph 75.8% 0.00 in 483 W/m2
09:09 69.4 °F 61.2 °F 29.79 in WNW 3.3 mph 12 mph 75.1% 0.00 in 503 W/m2
09:14 69.8 °F 60.7 °F 29.79 in NW 4.5 mph 13 mph 72.9% 0.00 in 534 W/m2
09:19 69.9 °F 60 °F 29.79 in WNW 3.4 mph 13 mph 70.8% 0.00 in 540 W/m2
09:24 70 °F 59.9 °F 29.79 in WNW 4.3 mph 15 mph 70.3% 0.00 in 538 W/m2
09:29 70.4 °F 60.6 °F 29.79 in NW 2.6 mph 15 mph 71.2% 0.00 in 543 W/m2
09:34 71 °F 60.7 °F 29.79 in WNW 3.1 mph 15 mph 69.8% 0.00 in 555 W/m2
09:39 71.4 °F 60.1 °F 29.79 in NW 3.5 mph 14 mph 67.5% 0.00 in 578 W/m2
09:44 71.6 °F 60.5 °F 29.79 in NNW 2.5 mph 14 mph 67.9% 0.00 in 585 W/m2
09:49 72 °F 60.4 °F 29.79 in NW 2.9 mph 14 mph 67% 0.00 in 612 W/m2
09:54 72.3 °F 61 °F 29.80 in NW 1.7 mph 14 mph 67.7% 0.00 in 652 W/m2
09:59 72.7 °F 60.4 °F 29.80 in WNW 3 mph 14 mph 65.4% 0.00 in 675 W/m2
10:04 72.9 °F 61.3 °F 29.80 in NNW 0.9 mph 14 mph 66.9% 0.00 in 675 W/m2
10:09 73.3 °F 61.6 °F 29.80 in WNW 1.9 mph 9 mph 66.6% 0.00 in 677 W/m2
10:14 73.8 °F 61.4 °F 29.80 in NW 1.9 mph 10 mph 65.1% 0.00 in 677 W/m2
10:19 74.2 °F 61.4 °F 29.80 in WNW 1.9 mph 12 mph 64.2% 0.00 in 744 W/m2
10:24 74.4 °F 60.7 °F 29.80 in WNW 2.7 mph 12 mph 62.4% 0.00 in 744 W/m2
10:29 74.3 °F 60.6 °F 29.80 in NW 3.1 mph 12 mph 62.3% 0.00 in 717 W/m2
10:34 74.2 °F 60 °F 29.80 in WNW 3 mph 12 mph 61.1% 0.00 in 654 W/m2
10:39 73.9 °F 60 °F 29.80 in WNW 4.2 mph 12 mph 61.9% 0.00 in 654 W/m2
10:44 73.3 °F 59.7 °F 29.80 in NW 3.7 mph 14 mph 62.5% 0.00 in 281 W/m2
10:49 72.7 °F 59 °F 29.80 in NW 4.1 mph 14 mph 62% 0.00 in 281 W/m2
10:54 72.2 °F 59.2 °F 29.80 in NW 4.1 mph 14 mph 63.5% 0.00 in 793 W/m2
10:59 72.1 °F 59.1 °F 29.80 in NW 2.5 mph 14 mph 63.5% 0.00 in 462 W/m2
11:04 71.9 °F 58.8 °F 29.80 in WNW 6 mph 15 mph 63.2% 0.00 in 278 W/m2
11:09 71.9 °F 59.7 °F 29.80 in WNW 3.9 mph 15 mph 65.5% 0.00 in 932 W/m2
11:14 72.4 °F 59.7 °F 29.80 in NW 3.6 mph 15 mph 64.5% 0.00 in 865 W/m2
11:19 72.6 °F 59.3 °F 29.80 in NW 3.9 mph 15 mph 63.2% 0.00 in 946 W/m2
11:24 72.7 °F 59.9 °F 29.80 in NW 3.1 mph 15 mph 64.1% 0.00 in 946 W/m2
11:29 72.5 °F 59.3 °F 29.81 in WNW 2.1 mph 15 mph 63.3% 0.00 in 118 W/m2
11:34 72.3 °F 59.2 °F 29.80 in NW 5.7 mph 15 mph 63.5% 0.00 in 221 W/m2
11:39 71.9 °F 58.2 °F 29.80 in NW 5.7 mph 15 mph 62.2% 0.00 in 216 W/m2
11:44 71.3 °F 58.7 °F 29.80 in WNW 4.8 mph 15 mph 64.3% 0.00 in 833 W/m2
11:49 71.3 °F 58.8 °F 29.80 in WNW 4.9 mph 15 mph 64.8% 0.00 in 833 W/m2
11:54 71.8 °F 59.6 °F 29.80 in WNW 3.6 mph 15 mph 65.5% 0.00 in 269 W/m2
11:59 72.5 °F 59.4 °F 29.80 in NW 4.3 mph 15 mph 63.6% 0.00 in 250 W/m2
12:04 73 °F 58.8 °F 29.80 in NNW 1.8 mph 3 mph 61% 0.00 in 127 W/m2
12:09 72.9 °F 58.8 °F 29.80 in WNW 6.9 mph 16 mph 61.3% 0.00 in 158 W/m2
12:14 72.6 °F 58.9 °F 29.80 in WNW 5.3 mph 17 mph 62% 0.00 in 190 W/m2
12:19 72.6 °F 58.6 °F 29.80 in WNW 5 mph 17 mph 61.3% 0.00 in 206 W/m2
12:23 72.6 °F 58.9 °F 29.81 in WNW 6.3 mph 17 mph 62% 0.00 in 211 W/m2
12:29 72.3 °F 58.3 °F 29.81 in WNW 5.7 mph 17 mph 61.5% 0.00 in 237 W/m2
12:34 72.3 °F 59.1 °F 29.81 in WNW 4 mph 17 mph 63.3% 0.00 in 241 W/m2
12:39 72.4 °F 58.6 °F 29.81 in WNW 2.1 mph 15 mph 61.8% 0.00 in 213 W/m2
12:44 72.5 °F 58.3 °F 29.81 in NW 5.2 mph 16 mph 61% 0.00 in 322 W/m2
12:49 72.4 °F 57.7 °F 29.81 in NW 2.1 mph 16 mph 60% 0.00 in 322 W/m2
12:54 72.3 °F 57.9 °F 29.81 in West 3.7 mph 19 mph 60.5% 0.00 in 230 W/m2
12:59 72.3 °F 58 °F 29.81 in NW 2.8 mph 19 mph 60.8% 0.00 in 605 W/m2
13:04 72.5 °F 57.9 °F 29.81 in WNW 5.3 mph 19 mph 60.1% 0.00 in 279 W/m2
13:09 72.5 °F 57.4 °F 29.82 in NW 5.5 mph 13 mph 59.1% 0.00 in 255 W/m2
13:14 72.3 °F 57 °F 29.82 in WNW 5.1 mph 14 mph 58.8% 0.00 in 162 W/m2
13:19 71.9 °F 56.8 °F 29.82 in WNW 7.2 mph 18 mph 58.9% 0.00 in 276 W/m2
13:24 71.7 °F 56.1 °F 29.82 in WNW 8.4 mph 18 mph 58% 0.00 in 200 W/m2
13:29 71.5 °F 56.4 °F 29.81 in West 7 mph 18 mph 58.9% 0.00 in 165 W/m2
13:34 71.7 °F 56.7 °F 29.81 in WNW 6.1 mph 18 mph 59.3% 0.00 in 132 W/m2
13:39 71.9 °F 56.1 °F 29.82 in NW 5.9 mph 21 mph 57.6% 0.00 in 114 W/m2
13:44 72.1 °F 56.4 °F 29.82 in West 4.7 mph 21 mph 57.6% 0.00 in 79 W/m2
13:49 72.4 °F 57 °F 29.82 in WNW 2.6 mph 21 mph 58.3% 0.00 in 118 W/m2
13:54 72.8 °F 57.5 °F 29.82 in NW 4 mph 21 mph 58.9% 0.00 in 118 W/m2
13:59 73 °F 56.9 °F 29.82 in WNW 4.5 mph 21 mph 57.1% 0.00 in 209 W/m2
14:04 73.3 °F 57.2 °F 29.82 in NW 4.4 mph 21 mph 57% 0.00 in 214 W/m2
14:09 73.6 °F 57.4 °F 29.82 in NW 4.3 mph 14 mph 56.9% 0.00 in 272 W/m2
14:14 73.7 °F 57.8 °F 29.82 in NNW 3 mph 14 mph 57.5% 0.00 in 327 W/m2
14:19 73.8 °F 57.6 °F 29.82 in WNW 4.2 mph 14 mph 57% 0.00 in 773 W/m2
14:24 73.8 °F 57.6 °F 29.82 in WNW 4.8 mph 18 mph 57% 0.00 in 773 W/m2
14:29 73.7 °F 57.2 °F 29.82 in WNW 7.1 mph 18 mph 56.4% 0.00 in 768 W/m2
14:34 73.4 °F 56.6 °F 29.82 in NW 4.2 mph 18 mph 55.6% 0.00 in 761 W/m2
14:39 73.4 °F 57 °F 29.82 in NW 5.1 mph 14 mph 56.5% 0.00 in 758 W/m2
14:44 73.4 °F 56.5 °F 29.82 in NW 6.8 mph 20 mph 55.3% 0.00 in 754 W/m2
14:49 73.5 °F 57.1 °F 29.82 in West 5 mph 20 mph 56.5% 0.00 in 749 W/m2
14:54 73.7 °F 57.5 °F 29.82 in WNW 5.1 mph 20 mph 56.8% 0.00 in 742 W/m2
14:59 73.8 °F 57.3 °F 29.82 in NW 6.9 mph 20 mph 56.2% 0.00 in 733 W/m2
15:04 73.9 °F 57.1 °F 29.82 in NW 4.5 mph 20 mph 55.8% 0.00 in 726 W/m2
15:09 73.8 °F 57.3 °F 29.82 in NW 5.3 mph 15 mph 56.2% 0.00 in 721 W/m2
15:14 73.8 °F 57 °F 29.82 in WNW 4.7 mph 16 mph 55.6% 0.00 in 735 W/m2
15:19 73.7 °F 56.7 °F 29.82 in WNW 5.6 mph 16 mph 55.2% 0.00 in 735 W/m2
15:24 73.2 °F 56.3 °F 29.83 in WNW 6.6 mph 16 mph 55.5% 0.00 in 134 W/m2
15:29 72.7 °F 56.4 °F 29.83 in NW 2.8 mph 16 mph 56.7% 0.00 in 765 W/m2
15:34 72.7 °F 56.9 °F 29.83 in WNW 1.8 mph 16 mph 57.7% 0.00 in 765 W/m2
15:39 72.9 °F 56.9 °F 29.83 in WNW 4.1 mph 13 mph 57.2% 0.00 in 171 W/m2
15:44 72.7 °F 56.7 °F 29.82 in West 5 mph 13 mph 57.2% 0.00 in 250 W/m2
15:49 72.4 °F 56.9 °F 29.83 in WNW 5.9 mph 14 mph 58.2% 0.00 in 638 W/m2
15:54 72.6 °F 56.9 °F 29.83 in WNW 7.1 mph 14 mph 57.8% 0.00 in 612 W/m2
15:59 72.6 °F 56.5 °F 29.83 in WNW 5.3 mph 15 mph 57% 0.00 in 596 W/m2
16:00 72.5 °F 56.4 °F 29.83 in NW 4 mph 15 mph 57% 0.00 in 37 W/m2
16:09 72.6 °F 56.4 °F 29.83 in WNW 5.3 mph 15 mph 56.8% 0.00 in 42 W/m2
16:14 72.6 °F 55.7 °F 29.83 in NW 4.9 mph 15 mph 55.3% 0.00 in 35 W/m2
16:19 72.7 °F 55.9 °F 29.83 in WNW 8.3 mph 16 mph 55.5% 0.00 in 33 W/m2
16:24 72.7 °F 55 °F 29.83 in WNW 7.1 mph 16 mph 53.9% 0.00 in 35 W/m2
16:29 72.7 °F 55.1 °F 29.83 in WNW 7.9 mph 22 mph 54% 0.00 in 42 W/m2
16:34 72.7 °F 54.8 °F 29.84 in WNW 6.9 mph 22 mph 53.4% 0.00 in 46 W/m2
16:39 72.6 °F 54.8 °F 29.84 in WNW 6.1 mph 19 mph 53.5% 0.00 in 39 W/m2
16:44 72.6 °F 54.6 °F 29.84 in NW 4.3 mph 19 mph 53.2% 0.00 in 39 W/m2
16:49 72.5 °F 54.5 °F 29.84 in NW 4.5 mph 19 mph 53.1% 0.00 in 32 W/m2
16:54 72.5 °F 54 °F 29.84 in NW 5.1 mph 19 mph 52.3% 0.00 in 35 W/m2
16:59 72.4 °F 54 °F 29.85 in NW 4.7 mph 19 mph 52.4% 0.00 in 35 W/m2
17:04 72.3 °F 53.3 °F 29.85 in NW 5.9 mph 19 mph 51.3% 0.00 in 44 W/m2
17:09 72.2 °F 54.1 °F 29.85 in WNW 3.9 mph 15 mph 52.8% 0.00 in 44 W/m2
17:14 72.3 °F 54.3 °F 29.85 in WNW 5.2 mph 15 mph 53.2% 0.00 in 32 W/m2
17:19 72.2 °F 54.5 °F 29.85 in WNW 1.2 mph 15 mph 53.6% 0.00 in 26 W/m2
17:24 72.2 °F 55 °F 29.86 in WNW 2.2 mph 15 mph 54.7% 0.00 in 26 W/m2
17:29 72.2 °F 54.6 °F 29.86 in West 3 mph 15 mph 53.8% 0.00 in 25 W/m2
17:34 72 °F 54.4 °F 29.86 in NW 4.2 mph 15 mph 53.8% 0.00 in 25 W/m2
17:39 71.8 °F 54.2 °F 29.86 in NW 2.4 mph 12 mph 53.9% 0.00 in 23 W/m2
17:44 71.7 °F 54.5 °F 29.87 in WNW 4.4 mph 16 mph 54.5% 0.00 in 23 W/m2
17:49 71.5 °F 53.9 °F 29.87 in NW 4.4 mph 16 mph 53.7% 0.00 in 23 W/m2
17:54 71.3 °F 53.3 °F 29.87 in NW 5.5 mph 16 mph 53.1% 0.00 in 21 W/m2
17:59 71.1 °F 53.6 °F 29.88 in WNW 3.4 mph 16 mph 53.9% 0.00 in 21 W/m2
18:04 70.9 °F 53.8 °F 29.88 in NW 2.2 mph 16 mph 54.7% 0.00 in 19 W/m2
18:09 70.7 °F 53.9 °F 29.88 in NW 3.4 mph 13 mph 55.2% 0.00 in 19 W/m2
18:14 70.5 °F 53.9 °F 29.88 in West 2.7 mph 13 mph 55.7% 0.00 in 18 W/m2
18:19 70.3 °F 54.2 °F 29.88 in WNW 3.8 mph 13 mph 56.6% 0.00 in 16 W/m2
18:24 70 °F 54.1 °F 29.88 in WNW 2.5 mph 13 mph 57% 0.00 in 16 W/m2
18:29 69.8 °F 53.8 °F 29.88 in WNW 2.4 mph 13 mph 56.8% 0.00 in 14 W/m2
18:34 69.5 °F 53.8 °F 29.88 in WNW 1.8 mph 13 mph 57.3% 0.00 in 14 W/m2
18:39 69.4 °F 53.9 °F 29.88 in WNW 0.5 mph 7 mph 57.9% 0.00 in 12 W/m2
18:44 69.2 °F 54.2 °F 29.88 in Calm   7 mph 58.9% 0.00 in 11 W/m2
18:49 68.9 °F 54 °F 29.89 in West 1 mph 7 mph 59% 0.00 in 9 W/m2
18:54 68.6 °F 53.7 °F 29.89 in WNW 0.3 mph 7 mph 59% 0.00 in 7 W/m2
18:59 68.4 °F 54 °F 29.89 in West 0.9 mph 7 mph 60.1% 0.00 in 5 W/m2
19:04 68.1 °F 53.7 °F 29.89 in West 0.2 mph 7 mph 60% 0.00 in 0 W/m2
19:09 67.7 °F 53.7 °F 29.89 in West 0.8 mph 5 mph 60.8% 0.00 in 0 W/m2
19:14 67.5 °F 53.5 °F 29.90 in West 0.7 mph 5 mph 61% 0.00 in 0 W/m2
19:19 67.2 °F 53.3 °F 29.90 in West 0.7 mph 5 mph 61% 0.00 in 0 W/m2
19:24 66.9 °F 53 °F 29.90 in West 0.6 mph 6 mph 61% 0.00 in 0 W/m2
19:29 66.6 °F 52.8 °F 29.91 in West 1.3 mph 7 mph 61.1% 0.00 in 0 W/m2
19:34 66.4 °F 52.6 °F 29.91 in West 0.8 mph 7 mph 61.3% 0.00 in 0 W/m2
19:39 66.1 °F 52.4 °F 29.91 in West 0.3 mph 5 mph 61.3% 0.00 in 0 W/m2
19:44 65.9 °F 52.4 °F 29.92 in West 0.3 mph 5 mph 61.7% 0.00 in 0 W/m2
19:49 65.8 °F 52.2 °F 29.92 in West 0.2 mph 5 mph 61.5% 0.00 in 0 W/m2
19:54 65.6 °F 52.3 °F 29.92 in Calm   5 mph 62.2% 0.00 in 0 W/m2
19:59 65.4 °F 52.7 °F 29.92 in Calm   5 mph 63.5% 0.00 in 0 W/m2
20:00 65.3 °F 52.8 °F 29.92 in Calm   5 mph 64% 0.00 in 0 W/m2
20:09 64.9 °F 52.2 °F 29.93 in Calm   2 mph 63.5% 0.00 in 0 W/m2
20:14 64.6 °F 52.5 °F 29.93 in West 0.4 mph 4 mph 64.7% 0.00 in 0 W/m2
20:19 64.4 °F 52.6 °F 29.93 in West 0.2 mph 4 mph 65.7% 0.00 in 0 W/m2
20:24 64.1 °F 52.6 °F 29.94 in Calm   4 mph 66.2% 0.00 in 0 W/m2
20:29 63.8 °F 52.7 °F 29.94 in West 0.3 mph 4 mph 67% 0.00 in 0 W/m2
20:34 63.6 °F 52.4 °F 29.94 in West 0.9 mph 4 mph 67% 0.00 in 0 W/m2
20:39 63.3 °F 52.5 °F 29.94 in West 0.5 mph 5 mph 67.8% 0.00 in 0 W/m2
20:44 63.1 °F 52.4 °F 29.94 in West 0.3 mph 5 mph 68.1% 0.00 in 0 W/m2
20:49 62.9 °F 52.6 °F 29.95 in West 0.1 mph 5 mph 69% 0.00 in 0 W/m2
20:54 62.7 °F 52.4 °F 29.95 in Calm   5 mph 69.2% 0.00 in 0 W/m2
20:59 62.5 °F 52.6 °F 29.95 in West 1 mph 5 mph 70% 0.00 in 0 W/m2
21:04 62.3 °F 52.4 °F 29.95 in West 0.2 mph 5 mph 70.1% 0.00 in 0 W/m2
21:09 62.1 °F 52.6 °F 29.95 in West 0.6 mph 3 mph 71.1% 0.00 in 0 W/m2
21:14 61.8 °F 52.7 °F 29.95 in West 0.6 mph 3 mph 72% 0.00 in 0 W/m2
21:19 61.6 °F 52.5 °F 29.96 in West 1.4 mph 7 mph 72% 0.00 in 0 W/m2
21:24 61.4 °F 52.3 °F 29.96 in West 2.3 mph 11 mph 72% 0.00 in 0 W/m2
21:29 61.3 °F 51.9 °F 29.96 in West 1.8 mph 11 mph 71.3% 0.00 in 0 W/m2
21:34 61.4 °F 51.8 °F 29.96 in West 2.6 mph 11 mph 70.7% 0.00 in 0 W/m2
21:39 61.5 °F 51.7 °F 29.96 in West 2 mph 8 mph 70% 0.00 in 0 W/m2
21:44 61.7 °F 51.5 °F 29.96 in West 2.3 mph 8 mph 69.1% 0.00 in 0 W/m2
21:49 62 °F 51.5 °F 29.96 in West 0.8 mph 9 mph 68.6% 0.00 in 0 W/m2
21:54 62.1 °F 51.5 °F 29.97 in West 1.1 mph 9 mph 68% 0.00 in 0 W/m2
21:59 62.2 °F 51.5 °F 29.97 in WNW 1.1 mph 10 mph 67.8% 0.00 in 0 W/m2
22:04 62.3 °F 51.3 °F 29.97 in West 3 mph 10 mph 67.1% 0.00 in 0 W/m2
22:09 62.3 °F 51.2 °F 29.98 in WNW 1.9 mph 10 mph 67% 0.00 in 0 W/m2
22:14 62.3 °F 51.3 °F 29.98 in West 1.3 mph 10 mph 67.2% 0.00 in 0 W/m2
22:19 62.2 °F 51.2 °F 29.98 in West 1.1 mph 10 mph 67.1% 0.00 in 0 W/m2
22:24 62.2 °F 51.5 °F 29.99 in West 0.6 mph 10 mph 68% 0.00 in 0 W/m2
22:29 62 °F 51.4 °F 29.99 in West 0.8 mph 10 mph 68.1% 0.00 in 0 W/m2
22:34 61.8 °F 51.3 °F 29.99 in WNW 3.1 mph 12 mph 68.5% 0.00 in 0 W/m2
22:39 61.7 °F 51 °F 29.99 in WNW 1.5 mph 12 mph 68% 0.00 in 0 W/m2
22:44 61.6 °F 51 °F 29.99 in West 2.1 mph 12 mph 68% 0.00 in 0 W/m2
22:49 61.6 °F 51.2 °F 29.99 in West 0.9 mph 12 mph 68.6% 0.00 in 0 W/m2
22:54 61.5 °F 51.3 °F 30.00 in West 0.2 mph 12 mph 69% 0.00 in 0 W/m2
22:59 61.5 °F 51.2 °F 30.00 in WSW 1.3 mph 12 mph 69% 0.00 in 0 W/m2
23:04 61.4 °F 51.2 °F 30.00 in West 1.3 mph 12 mph 69% 0.00 in 0 W/m2
23:09 61.3 °F 51.2 °F 30.00 in West 1.6 mph 6 mph 69.2% 0.00 in 0 W/m2
23:14 61.3 °F 51.4 °F 30.00 in West 1.2 mph 6 mph 70% 0.00 in 0 W/m2
23:19 61.2 °F 51.6 °F 30.00 in West 0.5 mph 6 mph 70.6% 0.00 in 0 W/m2
23:24 61 °F 51.5 °F 30.00 in West 0.5 mph 6 mph 71% 0.00 in 0 W/m2
23:29 60.8 °F 51.3 °F 30.01 in West 0.5 mph 6 mph 71% 0.00 in 0 W/m2
23:34 60.6 °F 51.4 °F 30.01 in West 0.5 mph 6 mph 71.6% 0.00 in 0 W/m2
23:39 60.4 °F 51.4 °F 30.01 in West 0.1 mph 4 mph 72% 0.00 in 0 W/m2
23:44 60.2 °F 51.3 °F 30.01 in Calm   4 mph 72.3% 0.00 in 0 W/m2
23:49 60.1 °F 51.4 °F 30.02 in West 0.1 mph 4 mph 73% 0.00 in 0 W/m2
23:54 59.9 °F 51.2 °F 30.02 in West 0.3 mph 5 mph 73% 0.00 in 0 W/m2
23:59 59.8 °F 51.4 °F 30.02 in West 0.1 mph 5 mph 73.8% 0.00 in 0 W/m2
Hartford County Weather
Compliments of Weather Underground - 2 mb